<?xml version="1.0" encoding="UTF-8" standalone="no" ?>
<gpx xmlns="http://www.topografix.com/GPX/1/1" xmlns:xsi="http://www.w3.org/2001/XMLSchema-instance" xsi:schemaLocation="http://www.topografix.com/GPX/1/1 http://www.topografix.com/GPX/1/1/gpx.xsd" version="1.1" creator="VisuGPX - https://www.visugpx.com">
  <metadata>
    <name>4x4 Brindas</name>
  </metadata>
  <trk>
    <name><![CDATA[4x4 Brindas_1]]></name>
    <extensions>
      <line xmlns="http://www.topografix.com/GPX/gpx_style/0/2">
        <color>008800</color>
        <width>4</width>
      </line>
    </extensions>
    <trkseg>
      <trkpt lat="45.71806" lon="4.68612">
        <ele>322.7</ele>
      </trkpt>
      <trkpt lat="45.71806" lon="4.68612">
        <ele>322.7</ele>
      </trkpt>
      <trkpt lat="45.71738" lon="4.68469">
        <ele>318.8</ele>
      </trkpt>
      <trkpt lat="45.71589" lon="4.6828">
        <ele>327.3</ele>
      </trkpt>
      <trkpt lat="45.71531" lon="4.68232">
        <ele>328.9</ele>
      </trkpt>
      <trkpt lat="45.71512" lon="4.68176">
        <ele>331.5</ele>
      </trkpt>
      <trkpt lat="45.71508" lon="4.68092">
        <ele>336</ele>
      </trkpt>
      <trkpt lat="45.71468" lon="4.67948">
        <ele>342.2</ele>
      </trkpt>
      <trkpt lat="45.71406" lon="4.67789">
        <ele>349</ele>
      </trkpt>
      <trkpt lat="45.71351" lon="4.67688">
        <ele>348.6</ele>
      </trkpt>
      <trkpt lat="45.71342" lon="4.67697">
        <ele>347.5</ele>
      </trkpt>
      <trkpt lat="45.71334" lon="4.67697">
        <ele>346.9</ele>
      </trkpt>
      <trkpt lat="45.7132" lon="4.67679">
        <ele>347</ele>
      </trkpt>
      <trkpt lat="45.71318" lon="4.67665">
        <ele>348</ele>
      </trkpt>
      <trkpt lat="45.71272" lon="4.67593">
        <ele>347.8</ele>
      </trkpt>
      <trkpt lat="45.7126" lon="4.6758">
        <ele>347.1</ele>
      </trkpt>
      <trkpt lat="45.71252" lon="4.67577">
        <ele>345.8</ele>
      </trkpt>
      <trkpt lat="45.71247" lon="4.67579">
        <ele>345.3</ele>
      </trkpt>
      <trkpt lat="45.71238" lon="4.67603">
        <ele>345.2</ele>
      </trkpt>
      <trkpt lat="45.71238" lon="4.67619">
        <ele>345.2</ele>
      </trkpt>
      <trkpt lat="45.71234" lon="4.67623">
        <ele>345.8</ele>
      </trkpt>
      <trkpt lat="45.71228" lon="4.6762">
        <ele>346.5</ele>
      </trkpt>
      <trkpt lat="45.71217" lon="4.67606">
        <ele>347.5</ele>
      </trkpt>
      <trkpt lat="45.71205" lon="4.6759">
        <ele>348.5</ele>
      </trkpt>
      <trkpt lat="45.71196" lon="4.67593">
        <ele>350.1</ele>
      </trkpt>
      <trkpt lat="45.71161" lon="4.67652">
        <ele>352</ele>
      </trkpt>
      <trkpt lat="45.71155" lon="4.6765">
        <ele>352.4</ele>
      </trkpt>
      <trkpt lat="45.71145" lon="4.67622">
        <ele>353.7</ele>
      </trkpt>
      <trkpt lat="45.71138" lon="4.67617">
        <ele>354</ele>
      </trkpt>
      <trkpt lat="45.71082" lon="4.67665">
        <ele>355</ele>
      </trkpt>
      <trkpt lat="45.71074" lon="4.67663">
        <ele>355</ele>
      </trkpt>
      <trkpt lat="45.71055" lon="4.676">
        <ele>357.4</ele>
      </trkpt>
      <trkpt lat="45.7104" lon="4.6754">
        <ele>359.9</ele>
      </trkpt>
      <trkpt lat="45.71035" lon="4.67532">
        <ele>360.4</ele>
      </trkpt>
      <trkpt lat="45.70982" lon="4.67532">
        <ele>364.1</ele>
      </trkpt>
      <trkpt lat="45.70968" lon="4.67527">
        <ele>365.3</ele>
      </trkpt>
      <trkpt lat="45.7096" lon="4.6752">
        <ele>366.4</ele>
      </trkpt>
      <trkpt lat="45.70952" lon="4.6751">
        <ele>365.8</ele>
      </trkpt>
      <trkpt lat="45.70964" lon="4.67406">
        <ele>366.5</ele>
      </trkpt>
      <trkpt lat="45.70964" lon="4.67371">
        <ele>365.6</ele>
      </trkpt>
      <trkpt lat="45.70917" lon="4.67284">
        <ele>367.4</ele>
      </trkpt>
      <trkpt lat="45.70896" lon="4.67168">
        <ele>370.7</ele>
      </trkpt>
      <trkpt lat="45.70859" lon="4.67189">
        <ele>371.6</ele>
      </trkpt>
      <trkpt lat="45.70849" lon="4.6712">
        <ele>373.7</ele>
      </trkpt>
      <trkpt lat="45.70827" lon="4.67015">
        <ele>380.8</ele>
      </trkpt>
      <trkpt lat="45.70808" lon="4.66893">
        <ele>390.9</ele>
      </trkpt>
      <trkpt lat="45.70803" lon="4.66806">
        <ele>398.7</ele>
      </trkpt>
      <trkpt lat="45.70835" lon="4.66771">
        <ele>402.7</ele>
      </trkpt>
      <trkpt lat="45.70875" lon="4.66749">
        <ele>404.155</ele>
        <time>2021-07-09T15:39:11Z</time>
      </trkpt>
      <trkpt lat="45.70875" lon="4.66749">
        <ele>404.155</ele>
        <time>2021-07-09T15:39:11Z</time>
      </trkpt>
      <trkpt lat="45.70991" lon="4.66664">
        <ele>403.507</ele>
        <time>2021-07-09T15:39:30Z</time>
      </trkpt>
      <trkpt lat="45.71022" lon="4.66665">
        <ele>405.217</ele>
        <time>2021-07-09T15:39:36Z</time>
      </trkpt>
      <trkpt lat="45.71051" lon="4.66644">
        <ele>407.808</ele>
        <time>2021-07-09T15:39:40Z</time>
      </trkpt>
      <trkpt lat="45.71147" lon="4.66648">
        <ele>414.712</ele>
        <time>2021-07-09T15:39:51Z</time>
      </trkpt>
      <trkpt lat="45.71252" lon="4.66587">
        <ele>416.052</ele>
        <time>2021-07-09T15:40:09Z</time>
      </trkpt>
      <trkpt lat="45.7139" lon="4.66551">
        <ele>416.252</ele>
        <time>2021-07-09T15:41:06Z</time>
      </trkpt>
      <trkpt lat="45.71494" lon="4.66486">
        <ele>419.643</ele>
        <time>2021-07-09T15:41:31Z</time>
      </trkpt>
      <trkpt lat="45.7157" lon="4.66406">
        <ele>426.04</ele>
        <time>2021-07-09T15:41:53Z</time>
      </trkpt>
      <trkpt lat="45.71636" lon="4.66277">
        <ele>433.413</ele>
        <time>2021-07-09T15:42:07Z</time>
      </trkpt>
      <trkpt lat="45.71657" lon="4.66203">
        <ele>434.324</ele>
        <time>2021-07-09T15:42:23Z</time>
      </trkpt>
      <trkpt lat="45.7157" lon="4.66059">
        <ele>447.665</ele>
        <time>2021-07-09T15:43:01Z</time>
      </trkpt>
      <trkpt lat="45.71253" lon="4.65777">
        <ele>503.053</ele>
        <time>2021-07-09T15:44:30Z</time>
      </trkpt>
      <trkpt lat="45.71173" lon="4.65613">
        <ele>514.804</ele>
        <time>2021-07-09T15:45:06Z</time>
      </trkpt>
      <trkpt lat="45.71061" lon="4.65433">
        <ele>524.314</ele>
        <time>2021-07-09T15:45:49Z</time>
      </trkpt>
      <trkpt lat="45.71058" lon="4.65419">
        <ele>526.108</ele>
        <time>2021-07-09T15:45:54Z</time>
      </trkpt>
      <trkpt lat="45.70998" lon="4.65409">
        <ele>527.3</ele>
      </trkpt>
      <trkpt lat="45.70981" lon="4.65395">
        <ele>525.2</ele>
      </trkpt>
      <trkpt lat="45.70959" lon="4.65343">
        <ele>525.3</ele>
      </trkpt>
      <trkpt lat="45.70934" lon="4.65327">
        <ele>522.4</ele>
      </trkpt>
      <trkpt lat="45.70897" lon="4.65303">
        <ele>520.5</ele>
      </trkpt>
      <trkpt lat="45.70865" lon="4.65297">
        <ele>516.1</ele>
      </trkpt>
      <trkpt lat="45.70851" lon="4.65291">
        <ele>514.8</ele>
      </trkpt>
      <trkpt lat="45.70805" lon="4.65295">
        <ele>506.4</ele>
      </trkpt>
      <trkpt lat="45.70778" lon="4.65291">
        <ele>502.8</ele>
      </trkpt>
      <trkpt lat="45.70764" lon="4.65265">
        <ele>504.4</ele>
      </trkpt>
      <trkpt lat="45.70749" lon="4.65245">
        <ele>505.2</ele>
      </trkpt>
      <trkpt lat="45.70734" lon="4.65237">
        <ele>507.2</ele>
      </trkpt>
      <trkpt lat="45.7072" lon="4.65243">
        <ele>506.3</ele>
      </trkpt>
      <trkpt lat="45.70669" lon="4.65385">
        <ele>484.6</ele>
      </trkpt>
      <trkpt lat="45.70683" lon="4.65429">
        <ele>478.7</ele>
      </trkpt>
      <trkpt lat="45.70658" lon="4.65497">
        <ele>470.4</ele>
      </trkpt>
      <trkpt lat="45.70664" lon="4.65508">
        <ele>469.3</ele>
      </trkpt>
      <trkpt lat="45.70678" lon="4.65518">
        <ele>469.3</ele>
      </trkpt>
      <trkpt lat="45.70697" lon="4.65523">
        <ele>470.5</ele>
      </trkpt>
      <trkpt lat="45.70706" lon="4.65534">
        <ele>470.7</ele>
      </trkpt>
      <trkpt lat="45.70705" lon="4.65543">
        <ele>470.2</ele>
      </trkpt>
      <trkpt lat="45.70696" lon="4.6556">
        <ele>468.2</ele>
      </trkpt>
      <trkpt lat="45.70676" lon="4.6563">
        <ele>460.3</ele>
      </trkpt>
      <trkpt lat="45.70669" lon="4.65794">
        <ele>448</ele>
      </trkpt>
      <trkpt lat="45.70663" lon="4.65817">
        <ele>445.8</ele>
      </trkpt>
      <trkpt lat="45.70649" lon="4.6584">
        <ele>442.8</ele>
      </trkpt>
      <trkpt lat="45.70641" lon="4.65865">
        <ele>439.5</ele>
      </trkpt>
      <trkpt lat="45.70636" lon="4.66022">
        <ele>426.9</ele>
      </trkpt>
      <trkpt lat="45.70636" lon="4.66071">
        <ele>424.1</ele>
      </trkpt>
      <trkpt lat="45.70634" lon="4.66095">
        <ele>423</ele>
      </trkpt>
      <trkpt lat="45.70625" lon="4.66128">
        <ele>421.7</ele>
      </trkpt>
      <trkpt lat="45.7061" lon="4.66166">
        <ele>420.3</ele>
      </trkpt>
      <trkpt lat="45.70594" lon="4.66198">
        <ele>418.5</ele>
      </trkpt>
      <trkpt lat="45.70576" lon="4.66226">
        <ele>417.1</ele>
      </trkpt>
      <trkpt lat="45.70559" lon="4.66246">
        <ele>415.9</ele>
      </trkpt>
      <trkpt lat="45.70534" lon="4.6628">
        <ele>413.7</ele>
      </trkpt>
      <trkpt lat="45.70523" lon="4.66291">
        <ele>413.1</ele>
      </trkpt>
      <trkpt lat="45.70524" lon="4.66327">
        <ele>412.2</ele>
      </trkpt>
      <trkpt lat="45.70486" lon="4.66455">
        <ele>404.1</ele>
      </trkpt>
      <trkpt lat="45.70459" lon="4.66578">
        <ele>391.6</ele>
      </trkpt>
      <trkpt lat="45.7042" lon="4.66701">
        <ele>384.8</ele>
      </trkpt>
      <trkpt lat="45.70393" lon="4.66887">
        <ele>371.3</ele>
      </trkpt>
      <trkpt lat="45.70386" lon="4.66939">
        <ele>367.3</ele>
      </trkpt>
      <trkpt lat="45.70389" lon="4.66994">
        <ele>362.2</ele>
      </trkpt>
      <trkpt lat="45.70381" lon="4.67043">
        <ele>360.4</ele>
      </trkpt>
      <trkpt lat="45.70376" lon="4.67125">
        <ele>358.7</ele>
      </trkpt>
      <trkpt lat="45.70384" lon="4.67195">
        <ele>356.8</ele>
      </trkpt>
      <trkpt lat="45.70384" lon="4.6725">
        <ele>355.4</ele>
      </trkpt>
      <trkpt lat="45.70367" lon="4.67321">
        <ele>356.7</ele>
      </trkpt>
      <trkpt lat="45.70377" lon="4.67335">
        <ele>355.8</ele>
      </trkpt>
      <trkpt lat="45.70379" lon="4.6736">
        <ele>355.2</ele>
      </trkpt>
      <trkpt lat="45.70365" lon="4.67401">
        <ele>355.7</ele>
      </trkpt>
      <trkpt lat="45.70342" lon="4.67453">
        <ele>356</ele>
      </trkpt>
      <trkpt lat="45.70326" lon="4.67495">
        <ele>355.5</ele>
      </trkpt>
      <trkpt lat="45.70314" lon="4.67524">
        <ele>355.2</ele>
      </trkpt>
      <trkpt lat="45.7028" lon="4.67593">
        <ele>353.9</ele>
      </trkpt>
      <trkpt lat="45.70374" lon="4.67909">
        <ele>346.6</ele>
      </trkpt>
      <trkpt lat="45.70414" lon="4.67978">
        <ele>343.6</ele>
      </trkpt>
      <trkpt lat="45.70457" lon="4.68079">
        <ele>335.3</ele>
      </trkpt>
      <trkpt lat="45.70507" lon="4.6816">
        <ele>327.2</ele>
      </trkpt>
      <trkpt lat="45.70521" lon="4.68168">
        <ele>326.2</ele>
      </trkpt>
      <trkpt lat="45.70532" lon="4.68165">
        <ele>326</ele>
      </trkpt>
      <trkpt lat="45.70591" lon="4.6817">
        <ele>322.5</ele>
      </trkpt>
      <trkpt lat="45.7064" lon="4.68187">
        <ele>318.6</ele>
      </trkpt>
      <trkpt lat="45.70734" lon="4.68192">
        <ele>316.2</ele>
      </trkpt>
      <trkpt lat="45.70762" lon="4.68189">
        <ele>313.3</ele>
      </trkpt>
      <trkpt lat="45.70782" lon="4.68188">
        <ele>311.3</ele>
      </trkpt>
      <trkpt lat="45.70812" lon="4.68192">
        <ele>310</ele>
      </trkpt>
      <trkpt lat="45.70836" lon="4.68166">
        <ele>312.3</ele>
      </trkpt>
      <trkpt lat="45.70857" lon="4.68156">
        <ele>314.9</ele>
      </trkpt>
      <trkpt lat="45.70935" lon="4.68151">
        <ele>321.7</ele>
      </trkpt>
      <trkpt lat="45.7096" lon="4.68145">
        <ele>322.8</ele>
      </trkpt>
      <trkpt lat="45.71143" lon="4.68068">
        <ele>328.5</ele>
      </trkpt>
      <trkpt lat="45.71166" lon="4.68053">
        <ele>329.2</ele>
      </trkpt>
      <trkpt lat="45.7121" lon="4.68064">
        <ele>327</ele>
      </trkpt>
      <trkpt lat="45.71265" lon="4.68032">
        <ele>329.5</ele>
      </trkpt>
      <trkpt lat="45.71299" lon="4.68038">
        <ele>328.9</ele>
      </trkpt>
      <trkpt lat="45.7135" lon="4.68059">
        <ele>327.2</ele>
      </trkpt>
      <trkpt lat="45.71388" lon="4.68048">
        <ele>327.3</ele>
      </trkpt>
      <trkpt lat="45.71414" lon="4.68057">
        <ele>328.8</ele>
      </trkpt>
      <trkpt lat="45.71448" lon="4.68084">
        <ele>330.6</ele>
      </trkpt>
      <trkpt lat="45.71472" lon="4.68121">
        <ele>331.6</ele>
      </trkpt>
      <trkpt lat="45.71491" lon="4.68144">
        <ele>332</ele>
      </trkpt>
    </trkseg>
  </trk>
</gpx>